createdAt,value
2023-06-04T00:00:55.419Z,2
2023-06-04T00:02:55.226Z,1.2
2023-06-04T00:04:54.996Z,1.1
2023-06-04T00:06:54.680Z,1.6
2023-06-04T00:08:54.390Z,1.4
2023-06-04T00:12:53.905Z,2.1
2023-06-04T00:16:58.310Z,1.6
2023-06-04T00:18:58.034Z,1.5
2023-06-04T00:33:21.648Z,1.4
2023-06-04T00:37:21.179Z,1.2
2023-06-04T00:39:20.944Z,1.6
2023-06-04T00:41:24.092Z,1.6
2023-06-04T00:43:23.896Z,1.4
2023-06-04T00:45:23.592Z,1.4
2023-06-04T00:51:22.844Z,1.5
2023-06-04T00:53:22.589Z,1.7
2023-06-04T00:55:25.754Z,1.3
2023-06-04T00:57:25.532Z,1.5
2023-06-04T00:59:25.273Z,1.6
2023-06-04T01:01:25.129Z,1.3
2023-06-04T01:05:24.573Z,1.7
2023-06-04T01:07:24.335Z,1.6
2023-06-04T01:09:27.538Z,1.7
2023-06-04T01:13:27.050Z,1.4
2023-06-04T01:14:28.658Z,1.7
2023-06-04T01:16:28.440Z,1.7
2023-06-04T01:18:28.162Z,1.8
2023-06-04T01:20:27.963Z,1.2
2023-06-04T01:22:31.142Z,1.8
2023-06-04T01:24:30.878Z,1.5
2023-06-04T01:26:30.659Z,1.7
2023-06-04T01:28:30.412Z,1.6
2023-06-04T01:30:30.173Z,1.4
2023-06-04T01:32:29.963Z,1.6
2023-06-04T01:38:32.685Z,2.3
2023-06-04T01:40:32.483Z,1.9
2023-06-04T01:48:31.599Z,2.3
2023-06-04T01:56:34.189Z,1.7
2023-06-04T02:00:33.805Z,1.8
2023-06-04T02:04:36.701Z,2.2
2023-06-04T02:06:36.533Z,1.9
2023-06-04T02:09:37.928Z,2.1
2023-06-04T02:11:37.681Z,1.6
2023-06-04T02:25:39.719Z,1.7
2023-06-04T02:27:39.486Z,1.8
2023-06-04T02:31:42.536Z,1.7
2023-06-04T02:33:42.234Z,2
2023-06-04T02:37:41.823Z,1.8
2023-06-04T02:43:41.257Z,2.4
2023-06-04T02:45:44.536Z,2.8
2023-06-04T02:47:44.308Z,2.3
2023-06-04T02:49:44.037Z,1.6
2023-06-04T02:51:43.860Z,2.2
2023-06-04T02:55:43.514Z,2.2
2023-06-04T03:04:47.805Z,1.8
2023-06-04T03:06:47.652Z,2.1
2023-06-04T03:10:47.213Z,1.8
2023-06-04T03:14:50.162Z,2.1
2023-06-04T03:16:49.962Z,2
2023-06-04T03:22:49.472Z,1.6
2023-06-04T03:24:49.312Z,2.2
2023-06-04T03:28:52.471Z,2.2
2023-06-04T03:30:52.379Z,2.2
2023-06-04T03:34:51.934Z,2
2023-06-04T03:36:51.733Z,2.3
2023-06-04T03:38:51.556Z,2.8
2023-06-04T03:40:54.967Z,2.2
2023-06-04T03:42:54.876Z,2
2023-06-04T03:44:54.659Z,2.6
2023-06-04T03:46:54.621Z,2.2
2023-06-04T03:48:54.379Z,2.2
2023-06-04T03:56:57.290Z,2.2
2023-06-04T03:58:57.079Z,2
2023-06-04T04:01:18.974Z,2
2023-06-04T04:03:18.973Z,2.2
2023-06-04T04:05:18.688Z,2.6
2023-06-04T04:07:21.864Z,2.8
2023-06-04T04:09:21.674Z,1.9
2023-06-04T04:11:21.486Z,3.7
2023-06-04T04:13:21.370Z,2
2023-06-04T04:17:21.088Z,2.6
2023-06-04T04:19:20.977Z,2.4
2023-06-04T04:21:24.213Z,2.8
2023-06-04T04:23:23.992Z,2.4
2023-06-04T04:25:23.740Z,2.9
2023-06-04T04:47:24.809Z,2.3
2023-06-04T04:49:27.948Z,2.9
2023-06-04T04:51:27.683Z,2.3
2023-06-04T04:53:27.445Z,2.2
2023-06-04T04:54:29.048Z,2.5
2023-06-04T04:58:28.525Z,2.5
2023-06-04T05:08:30.517Z,2.2
2023-06-04T05:12:29.929Z,2.5
2023-06-04T05:14:29.632Z,2.1
2023-06-04T05:16:32.767Z,3.3
2023-06-04T05:20:32.090Z,2.6
2023-06-04T05:22:31.731Z,1.6
2023-06-04T05:24:31.404Z,2.2
2023-06-04T05:26:31.052Z,1.6
2023-06-04T05:28:30.731Z,2.4
2023-06-04T05:30:33.760Z,2.8
2023-06-04T05:32:33.605Z,1.7
2023-06-04T05:34:33.077Z,2.8
2023-06-04T05:36:32.700Z,1.8
2023-06-04T05:38:32.346Z,2.5
2023-06-04T05:40:31.941Z,2.5
2023-06-04T05:44:34.589Z,2.7
2023-06-04T05:46:34.212Z,2.4
2023-06-04T05:49:35.292Z,2
2023-06-04T05:51:34.890Z,2.5
2023-06-04T05:53:34.521Z,2.1
2023-06-04T05:55:34.072Z,2.5
2023-06-04T05:57:37.097Z,2.6
2023-06-04T05:59:36.646Z,1.8
2023-06-04T06:03:37.455Z,1.8
2023-06-04T06:05:37.317Z,2.6
2023-06-04T06:07:36.830Z,2.3
2023-06-04T06:09:36.351Z,2.6
2023-06-04T06:11:39.290Z,2.5
2023-06-04T06:13:38.831Z,2.7
2023-06-04T06:15:38.408Z,1.8
2023-06-04T06:17:37.938Z,1.7
2023-06-04T06:19:37.358Z,2.4
2023-06-04T06:21:36.879Z,1.9
2023-06-04T06:23:36.453Z,2.5
2023-06-04T06:27:38.837Z,1.8
2023-06-04T06:29:38.276Z,2.5
2023-06-04T06:31:37.837Z,3.5
2023-06-04T06:33:37.217Z,2.2
2023-06-04T06:35:36.716Z,2.8
2023-06-04T06:37:36.226Z,1.5
2023-06-04T06:39:39.050Z,1.5
2023-06-04T06:41:38.520Z,1.8
2023-06-04T07:04:37.620Z,2.1
2023-06-04T07:06:40.441Z,2.3
2023-06-04T07:08:39.829Z,1.7
2023-06-04T07:12:38.805Z,1.8
2023-06-04T07:14:38.187Z,2.1
2023-06-04T07:16:37.540Z,2.1
2023-06-04T07:18:36.927Z,1.7
2023-06-04T07:20:39.590Z,2
2023-06-04T07:22:38.922Z,2.2
2023-06-04T07:24:38.256Z,1.7
2023-06-04T07:26:37.594Z,1.6
2023-06-04T07:32:35.466Z,2
2023-06-04T07:38:36.614Z,2.3
2023-06-04T07:40:57.674Z,1.8
2023-06-04T07:42:56.939Z,2.3
2023-06-04T07:46:58.767Z,1.8
2023-06-04T07:58:54.126Z,1.8
2023-06-04T08:02:56.000Z,2
2023-06-04T08:04:55.189Z,1.4
2023-06-04T08:06:54.298Z,1.6
2023-06-04T08:08:53.457Z,1.5
2023-06-04T08:10:52.686Z,2.2
2023-06-04T08:16:53.554Z,2.2
2023-06-04T08:18:52.742Z,2.2
2023-06-04T08:20:51.925Z,1.3
2023-06-04T08:22:51.064Z,1.8
2023-06-04T08:26:49.389Z,1.8
2023-06-04T08:33:51.407Z,1.5
2023-06-04T08:35:50.513Z,1.6
2023-06-04T08:37:49.655Z,1.4
2023-06-04T08:39:48.777Z,2
2023-06-04T08:47:48.579Z,0.9
2023-06-04T08:51:46.715Z,1.6
2023-06-04T08:53:45.840Z,1.9
2023-06-04T08:55:48.254Z,1.3
2023-06-04T08:57:47.316Z,1.7
2023-06-04T08:59:46.462Z,1.5
2023-06-04T09:01:45.611Z,1.2
2023-06-04T09:03:44.583Z,1.7
2023-06-04T09:05:43.610Z,1.3
2023-06-04T09:07:42.641Z,1.3
2023-06-04T09:09:45.169Z,1.8
2023-06-04T09:11:44.125Z,1.2
2023-06-04T09:13:43.155Z,1.5
2023-06-04T09:15:42.229Z,1.9
2023-06-04T09:17:41.286Z,1.1
2023-06-04T09:27:39.732Z,1.4
2023-06-04T09:28:40.901Z,0.9
2023-06-04T09:40:38.217Z,0.9
2023-06-04T09:42:37.175Z,1
2023-06-04T09:44:36.179Z,0.7
2023-06-04T09:46:35.269Z,1.3
2023-06-04T10:04:32.753Z,1.4
2023-06-04T10:06:31.699Z,1
2023-06-04T10:08:30.675Z,0.8
2023-06-04T10:10:29.641Z,0.9
2023-06-04T10:18:28.870Z,1.1
2023-06-04T10:20:27.812Z,0.8
2023-06-04T10:23:27.983Z,1
2023-06-04T10:25:26.868Z,0.9
2023-06-04T10:27:25.826Z,1.2
2023-06-04T10:29:24.767Z,1.3
2023-06-04T10:31:27.096Z,1.1
2023-06-04T10:33:25.985Z,0.8
2023-06-04T10:35:24.926Z,1.3
2023-06-04T10:37:23.847Z,1.8
2023-06-04T10:39:22.750Z,1.2
2023-06-04T10:41:21.657Z,1.5
2023-06-04T10:43:20.580Z,1.7
2023-06-04T10:45:22.868Z,1.1
2023-06-04T10:47:21.799Z,1.1
2023-06-04T10:49:20.687Z,1.1
2023-06-04T10:51:19.588Z,0.9
2023-06-04T10:53:18.480Z,0.5
2023-06-04T10:55:17.416Z,1.5
2023-06-04T10:57:16.331Z,0.7
2023-06-04T10:59:18.591Z,0.7
2023-06-04T11:01:17.553Z,1.2
2023-06-04T11:03:16.514Z,0.8
2023-06-04T11:11:12.088Z,0.9
2023-06-04T11:13:14.449Z,1.1
2023-06-04T11:17:12.333Z,0.8
2023-06-04T11:19:30.613Z,1
2023-06-04T11:33:26.690Z,1.1
2023-06-04T11:35:25.668Z,1.1
2023-06-04T11:39:26.940Z,1.2
2023-06-04T11:51:22.197Z,1.4
2023-06-04T11:53:24.551Z,1.2
2023-06-04T12:03:19.586Z,1
2023-06-04T12:05:18.492Z,1.1
2023-06-04T12:09:19.898Z,0.8
2023-06-04T12:11:19.995Z,1
2023-06-04T12:12:20.050Z,0.4
2023-06-04T12:14:19.072Z,0.5
2023-06-04T12:16:18.126Z,1.2
2023-06-04T12:18:17.088Z,0.7
2023-06-04T12:20:19.457Z,1.1
2023-06-04T12:22:18.435Z,1.2
2023-06-04T12:24:17.492Z,1.1
2023-06-04T12:26:16.471Z,0.7
2023-06-04T12:28:15.448Z,1
2023-06-04T12:30:14.513Z,1.3
2023-06-04T12:32:13.507Z,1.1
2023-06-04T12:38:13.924Z,1.8
2023-06-04T12:40:12.972Z,1
2023-06-04T12:44:10.984Z,1.3
2023-06-04T12:46:10.218Z,0.9
2023-06-04T12:48:12.459Z,1.2
2023-06-04T12:54:09.509Z,1.1
2023-06-04T12:58:07.561Z,2
2023-06-04T13:06:07.051Z,1
2023-06-04T13:07:08.241Z,2
2023-06-04T13:11:06.535Z,1
2023-06-04T13:13:05.334Z,1.1
2023-06-04T13:15:07.725Z,0.9
2023-06-04T13:17:20.836Z,0.9
2023-06-04T13:19:05.736Z,0.9
2023-06-04T13:23:03.801Z,1.6
2023-06-04T13:25:02.860Z,0.9
2023-06-04T13:27:01.882Z,0.9
2023-06-04T13:29:04.272Z,1.1
2023-06-04T13:33:02.332Z,1.2
2023-06-04T13:35:01.310Z,1.3
2023-06-04T13:48:57.722Z,0.7
2023-06-04T13:50:56.719Z,1
2023-06-04T13:52:55.734Z,1.2
2023-06-04T13:56:57.060Z,1.1
2023-06-04T13:58:56.065Z,1
2023-06-04T14:11:54.591Z,0.9
2023-06-04T14:15:52.576Z,1
2023-06-04T14:25:50.917Z,1.2
2023-06-04T14:29:48.924Z,1.1
2023-06-04T14:31:47.999Z,1.1
2023-06-04T14:33:46.953Z,1.7
2023-06-04T14:35:45.969Z,1.2
2023-06-04T14:37:48.313Z,1.4
2023-06-04T14:41:46.346Z,1.6
2023-06-04T14:43:45.403Z,0.9
2023-06-04T14:45:44.384Z,1.2
2023-06-04T14:53:43.771Z,1.6
2023-06-04T14:55:42.769Z,2
2023-06-04T15:11:57.590Z,1.9
2023-06-04T15:13:56.630Z,1.8
2023-06-04T15:15:55.664Z,1.8
2023-06-04T15:17:58.121Z,1.1
2023-06-04T15:25:54.158Z,0.8
2023-06-04T15:33:53.725Z,1.4
2023-06-04T15:35:52.744Z,1.2
2023-06-04T15:37:51.786Z,1.3
2023-06-04T15:39:50.822Z,1.1
2023-06-04T15:41:49.858Z,1.7
2023-06-04T15:43:48.915Z,1.2
2023-06-04T15:45:51.391Z,1.7
2023-06-04T15:49:49.393Z,1.3
2023-06-04T15:50:50.615Z,1.3
2023-06-04T15:52:49.697Z,1.5
2023-06-04T15:54:48.742Z,1.5
2023-06-04T15:56:47.760Z,1.7
2023-06-04T15:58:50.217Z,1.5
2023-06-04T16:00:49.284Z,1.2
2023-06-04T16:04:47.413Z,1.5
2023-06-04T16:06:46.502Z,1.2
2023-06-04T16:10:44.664Z,0.9
2023-06-04T16:14:46.202Z,0.9
2023-06-04T16:16:47.388Z,1.1
2023-06-04T16:18:44.329Z,1.1
2023-06-04T16:20:43.467Z,1.4
2023-06-04T16:22:42.534Z,1.1
2023-06-04T16:24:41.650Z,1.5
2023-06-04T16:28:43.182Z,1.4
2023-06-04T16:30:42.273Z,1.2
2023-06-04T16:32:41.415Z,1.7
2023-06-04T16:34:40.507Z,1.3
2023-06-04T16:36:39.569Z,1
2023-06-04T16:38:38.680Z,1.2
2023-06-04T16:40:41.189Z,1.6
2023-06-04T16:42:40.302Z,1.6
2023-06-04T16:44:39.402Z,1.7
2023-06-04T16:45:40.592Z,1.2
2023-06-04T16:47:39.734Z,1.3
2023-06-04T16:49:38.855Z,1.7
2023-06-04T16:53:40.467Z,1.3
2023-06-04T17:03:36.110Z,1.6
2023-06-04T17:05:35.202Z,1.6
2023-06-04T17:07:37.738Z,1.7
2023-06-04T17:09:36.843Z,1.7
2023-06-04T17:11:36.009Z,1.3
2023-06-04T17:13:35.162Z,1.3
2023-06-04T17:19:32.675Z,1.2
2023-06-04T17:23:34.407Z,2
2023-06-04T17:31:31.127Z,1.8
2023-06-04T17:33:34.620Z,0.7
2023-06-04T17:35:34.286Z,1
2023-06-04T17:37:33.496Z,0.8
2023-06-04T17:39:32.695Z,1.6
2023-06-04T17:40:33.995Z,1.4
2023-06-04T17:48:34.151Z,1.7
2023-06-04T17:54:31.856Z,1.7
2023-06-04T17:56:31.058Z,1.4
2023-06-04T17:58:30.381Z,1.4
2023-06-04T18:00:29.611Z,1.1
2023-06-04T18:02:32.269Z,1.3
2023-06-04T18:04:31.511Z,1.5
2023-06-04T18:06:30.761Z,1.3
2023-06-04T18:18:29.889Z,0.8
2023-06-04T18:24:27.886Z,1.8
2023-06-04T18:26:27.259Z,1.6
2023-06-04T18:28:26.578Z,1.7
2023-06-04T18:30:29.249Z,1.5
2023-06-04T18:32:28.662Z,2.2
2023-06-04T18:34:28.059Z,1.6
2023-06-04T18:36:49.447Z,1.1
2023-06-04T18:38:48.795Z,1.7
2023-06-04T18:40:48.142Z,1.2
2023-06-04T18:42:50.875Z,1
2023-06-04T18:44:50.282Z,1.2
2023-06-04T18:48:49.142Z,1
2023-06-04T18:50:48.531Z,1.4
2023-06-04T18:52:48.049Z,1.1
2023-06-04T18:54:47.627Z,2
2023-06-04T18:56:50.395Z,1.6
2023-06-04T18:58:50.647Z,1.3
2023-06-04T19:00:49.418Z,1.9
2023-06-04T19:02:49.015Z,1.7
2023-06-04T19:18:48.597Z,1.5
2023-06-04T19:20:48.141Z,1.8
2023-06-04T19:22:47.671Z,2.1
2023-06-04T19:26:50.250Z,1.6
2023-06-04T19:28:49.798Z,1.6
2023-06-04T19:35:50.021Z,1.6
2023-06-04T19:37:53.013Z,1.9
2023-06-04T19:45:51.373Z,1.2
2023-06-04T19:47:51.049Z,1.6
2023-06-04T19:49:50.572Z,1.4
2023-06-04T19:51:53.590Z,1.7
2023-06-04T19:53:53.189Z,1.5
2023-06-04T19:55:52.809Z,1.8
2023-06-04T19:57:52.423Z,1.7
2023-06-04T19:59:52.033Z,1.2
2023-06-04T20:01:51.629Z,1.8
2023-06-04T20:03:51.284Z,1.8
2023-06-04T20:05:54.267Z,1.9
2023-06-04T20:07:53.889Z,1.6
2023-06-04T20:13:52.759Z,1.9
2023-06-04T20:15:52.429Z,1.6
2023-06-04T20:23:54.294Z,1.9
2023-06-04T20:24:55.770Z,1.5
2023-06-04T20:28:55.074Z,1.4
2023-06-04T20:30:54.714Z,1.4
2023-06-04T20:34:57.308Z,1.9
2023-06-04T20:36:56.892Z,1.5
2023-06-04T20:38:56.508Z,1.7
2023-06-04T20:40:56.092Z,1.8
2023-06-04T20:50:57.616Z,2.1
2023-06-04T20:52:57.226Z,1.6
2023-06-04T20:54:56.880Z,2.2
2023-06-04T20:56:56.467Z,2
2023-06-04T20:58:56.141Z,1.9
2023-06-04T21:00:59.177Z,1.9
2023-06-04T21:06:58.052Z,2.3
2023-06-04T21:14:59.988Z,1.4
2023-06-04T21:16:59.659Z,2.4
2023-06-04T21:18:59.304Z,2.3
2023-06-04T21:20:00.826Z,1.9
2023-06-04T21:30:02.526Z,2.3
2023-06-04T21:32:02.199Z,2
2023-06-04T21:34:01.819Z,2.5
2023-06-04T21:36:01.495Z,1.7
2023-06-04T21:38:01.183Z,2.2
2023-06-04T21:40:00.849Z,3
2023-06-04T21:44:03.610Z,2.3
2023-06-04T21:52:07.864Z,1.9
2023-06-04T21:54:01.986Z,2.3
2023-06-04T21:56:05.036Z,2.4
2023-06-04T21:58:04.798Z,3.1
2023-06-04T22:02:04.182Z,2
2023-06-04T22:06:03.540Z,2.5
2023-06-04T22:10:06.326Z,2.7
2023-06-04T22:12:06.045Z,2.5
2023-06-04T22:16:27.615Z,2.3
2023-06-04T22:18:30.254Z,1.8
2023-06-04T22:20:26.986Z,2
2023-06-04T22:22:30.098Z,3
2023-06-04T22:24:29.805Z,2
2023-06-04T22:28:29.207Z,2.5
2023-06-04T22:30:28.967Z,2.5
2023-06-04T22:32:28.701Z,2.4
2023-06-04T22:34:28.390Z,2
2023-06-04T22:36:31.521Z,2.7
2023-06-04T22:38:31.261Z,2.3
2023-06-04T22:40:30.984Z,2
2023-06-04T22:50:32.993Z,2.7
2023-06-04T22:54:32.479Z,2.4
2023-06-04T22:58:31.909Z,2.6
2023-06-04T23:02:31.404Z,2.6
2023-06-04T23:04:34.487Z,2.6
2023-06-04T23:06:34.238Z,2.7
2023-06-04T23:08:33.976Z,3.2
2023-06-04T23:29:37.864Z,2.6
2023-06-04T23:31:41.078Z,3.1
2023-06-04T23:33:40.772Z,3.2
2023-06-04T23:35:40.518Z,3
2023-06-04T23:37:40.269Z,2.5
2023-06-04T23:39:40.027Z,3.6
2023-06-04T23:41:39.712Z,3.2
2023-06-04T23:43:39.463Z,2.9
2023-06-04T23:49:42.148Z,3.2
2023-06-04T23:53:41.642Z,3.7
2023-06-04T23:55:41.408Z,3.7
2023-06-04T23:57:41.175Z,3.1
2023-06-04T23:59:44.307Z,3.5
